sensor_id;sensor_type;location;lat;lon;timestamp;pressure;altitude;pressure_sealevel;temperature;humidity
7824;BME280;3957;48.61947800;9.05303100;2023-04-06T00:00:45;96248.34;;;-2.43;96.34
7824;BME280;3957;48.61947800;9.05303100;2023-04-06T00:01:45;96246.78;;;-2.45;96.64
7824;BME280;3957;48.61947800;9.05303100;2023-04-06T00:02:47;96244.19;;;-2.45;97.13
7824;BME280;3957;48.61947800;9.05303100;2023-04-06T00:03:47;96246.19;;;-2.49;97.34
7824;BME280;3957;48.61947800;9.05303100;2023-04-06T00:04:47;96247.03;;;-2.48;97.72
7824;BME280;3957;48.61947800;9.05303100;2023-04-06T00:05:48;96244.63;;;-2.51;98.08
7824;BME280;3957;48.61947800;9.05303100;2023-04-06T00:06:48;96240.00;;;-2.48;98.64
7824;BME280;3957;48.61947800;9.05303100;2023-04-06T00:07:49;96245.13;;;-2.46;98.74
7824;BME280;3957;48.61947800;9.05303100;2023-04-06T00:08:50;96237.38;;;-2.48;98.82
7824;BME280;3957;48.61947800;9.05303100;2023-04-06T00:09:50;96239.06;;;-2.47;99.28
7824;BME280;3957;48.61947800;9.05303100;2023-04-06T00:10:51;96237.25;;;-2.46;99.54
7824;BME280;3957;48.61947800;9.05303100;2023-04-06T00:11:51;96235.72;;;-2.49;99.85
7824;BME280;3957;48.61947800;9.05303100;2023-04-06T00:12:52;96237.50;;;-2.49;99.79
7824;BME280;3957;48.61947800;9.05303100;2023-04-06T00:13:53;96236.78;;;-2.51;99.97
7824;BME280;3957;48.61947800;9.05303100;2023-04-06T00:14:54;96234.16;;;-2.51;100.00
7824;BME280;3957;48.61947800;9.05303100;2023-04-06T00:15:54;96238.44;;;-2.50;100.00
7824;BME280;3957;48.61947800;9.05303100;2023-04-06T00:16:56;96235.13;;;-2.52;100.00
7824;BME280;3957;48.61947800;9.05303100;2023-04-06T00:17:56;96229.03;;;-2.53;100.00
7824;BME280;3957;48.61947800;9.05303100;2023-04-06T00:18:57;96235.84;;;-2.50;100.00
7824;BME280;3957;48.61947800;9.05303100;2023-04-06T00:19:57;96232.50;;;-2.52;100.00
7824;BME280;3957;48.61947800;9.05303100;2023-04-06T00:20:58;96232.50;;;-2.52;100.00
7824;BME280;3957;48.61947800;9.05303100;2023-04-06T00:21:58;96227.97;;;-2.50;100.00
7824;BME280;3957;48.61947800;9.05303100;2023-04-06T00:22:59;96223.47;;;-2.48;100.00
7824;BME280;3957;48.61947800;9.05303100;2023-04-06T00:23:59;96225.97;;;-2.47;100.00
7824;BME280;3957;48.61947800;9.05303100;2023-04-06T00:25:00;96228.56;;;-2.47;100.00
7824;BME280;3957;48.61947800;9.05303100;2023-04-06T00:26:00;96219.66;;;-2.44;99.62
7824;BME280;3957;48.61947800;9.05303100;2023-04-06T00:27:01;96220.47;;;-2.44;99.76
7824;BME280;3957;48.61947800;9.05303100;2023-04-06T00:28:01;96227.25;;;-2.41;99.52
7824;BME280;3957;48.61947800;9.05303100;2023-04-06T00:29:02;96228.94;;;-2.40;99.97
7824;BME280;3957;48.61947800;9.05303100;2023-04-06T00:30:07;96224.66;;;-2.41;99.77
7824;BME280;3957;48.61947800;9.05303100;2023-04-06T00:31:07;96219.41;;;-2.41;99.89
7824;BME280;3957;48.61947800;9.05303100;2023-04-06T00:32:08;96215.84;;;-2.40;99.90
7824;BME280;3957;48.61947800;9.05303100;2023-04-06T00:33:08;96226.19;;;-2.38;100.00
7824;BME280;3957;48.61947800;9.05303100;2023-04-06T00:34:09;96222.72;;;-2.39;99.77
7824;BME280;3957;48.61947800;9.05303100;2023-04-06T00:35:10;96219.41;;;-2.41;99.59
7824;BME280;3957;48.61947800;9.05303100;2023-04-06T00:36:11;96213.34;;;-2.42;99.42
7824;BME280;3957;48.61947800;9.05303100;2023-04-06T00:37:11;96219.66;;;-2.44;98.91
7824;BME280;3957;48.61947800;9.05303100;2023-04-06T00:38:13;96217.72;;;-2.42;98.69
7824;BME280;3957;48.61947800;9.05303100;2023-04-06T00:39:14;96217.84;;;-2.44;98.71
7824;BME280;3957;48.61947800;9.05303100;2023-04-06T00:40:15;96218.47;;;-2.40;98.71
7824;BME280;3957;48.61947800;9.05303100;2023-04-06T00:41:17;96220.22;;;-2.41;98.55
7824;BME280;3957;48.61947800;9.05303100;2023-04-06T00:42:18;96218.59;;;-2.42;98.29
7824;BME280;3957;48.61947800;9.05303100;2023-04-06T00:43:25;96220.34;;;-2.42;98.23
7824;BME280;3957;48.61947800;9.05303100;2023-04-06T00:44:26;96218.59;;;-2.42;98.15
7824;BME280;3957;48.61947800;9.05303100;2023-04-06T00:45:28;96225.47;;;-2.41;97.96
7824;BME280;3957;48.61947800;9.05303100;2023-04-06T00:46:28;96218.59;;;-2.42;97.42
7824;BME280;3957;48.61947800;9.05303100;2023-04-06T00:47:29;96219.28;;;-2.40;97.24
7824;BME280;3957;48.61947800;9.05303100;2023-04-06T00:48:30;96216.28;;;-2.35;97.11
7824;BME280;3957;48.61947800;9.05303100;2023-04-06T00:49:32;96214.28;;;-2.31;96.38
7824;BME280;3957;48.61947800;9.05303100;2023-04-06T00:50:33;96220.13;;;-2.28;96.62
7824;BME280;3957;48.61947800;9.05303100;2023-04-06T00:51:33;96214.16;;;-2.30;96.38
7824;BME280;3957;48.61947800;9.05303100;2023-04-06T00:52:34;96207.84;;;-2.27;96.71
7824;BME280;3957;48.61947800;9.05303100;2023-04-06T00:53:35;96214.75;;;-2.26;96.69
7824;BME280;3957;48.61947800;9.05303100;2023-04-06T00:54:36;96213.06;;;-2.27;96.89
7824;BME280;3957;48.61947800;9.05303100;2023-04-06T00:55:38;96217.38;;;-2.26;96.91
7824;BME280;3957;48.61947800;9.05303100;2023-04-06T00:56:41;96212.13;;;-2.26;97.10
7824;BME280;3957;48.61947800;9.05303100;2023-04-06T00:57:44;96212.94;;;-2.26;97.53
7824;BME280;3957;48.61947800;9.05303100;2023-04-06T00:58:45;96213.44;;;-2.32;97.90
7824;BME280;3957;48.61947800;9.05303100;2023-04-06T00:59:46;96206.78;;;-2.36;98.04
7824;BME280;3957;48.61947800;9.05303100;2023-04-06T01:00:47;96208.09;;;-2.30;98.21
7824;BME280;3957;48.61947800;9.05303100;2023-04-06T01:01:51;96208.22;;;-2.32;97.85
7824;BME280;3957;48.61947800;9.05303100;2023-04-06T01:03:04;96208.78;;;-2.28;97.66
7824;BME280;3957;48.61947800;9.05303100;2023-04-06T01:04:12;96206.38;;;-2.20;96.99
7824;BME280;3957;48.61947800;9.05303100;2023-04-06T01:05:15;96207.47;;;-2.23;97.20
7824;BME280;3957;48.61947800;9.05303100;2023-04-06T01:06:24;96205.56;;;-2.20;97.12
7824;BME280;3957;48.61947800;9.05303100;2023-04-06T01:07:35;96210.94;;;-2.22;97.37
7824;BME280;3957;48.61947800;9.05303100;2023-04-06T01:08:43;96206.63;;;-2.23;98.07
7824;BME280;3957;48.61947800;9.05303100;2023-04-06T01:09:54;96203.88;;;-2.22;97.58
7824;BME280;3957;48.61947800;9.05303100;2023-04-06T01:10:59;96204.50;;;-2.18;97.48
7824;BME280;3957;48.61947800;9.05303100;2023-04-06T01:12:03;96195.31;;;-2.12;97.07
7824;BME280;3957;48.61947800;9.05303100;2023-04-06T01:13:05;96203.28;;;-2.14;96.43
7824;BME280;3957;48.61947800;9.05303100;2023-04-06T01:14:36;96196.00;;;-2.10;96.54
7824;BME280;3957;48.61947800;9.05303100;2023-04-06T01:15:36;96192.69;;;-2.12;96.20
7824;BME280;3957;48.61947800;9.05303100;2023-04-06T01:16:41;96196.84;;;-2.10;95.96
7824;BME280;3957;48.61947800;9.05303100;2023-04-06T01:17:53;96192.69;;;-2.12;96.14
7824;BME280;3957;48.61947800;9.05303100;2023-04-06T01:18:54;96197.31;;;-2.16;96.67
7824;BME280;3957;48.61947800;9.05303100;2023-04-06T01:19:59;96193.41;;;-2.22;96.61
7824;BME280;3957;48.61947800;9.05303100;2023-04-06T01:21:04;96197.09;;;-2.24;96.66
7824;BME280;3957;48.61947800;9.05303100;2023-04-06T01:22:04;96191.38;;;-2.29;97.41
7824;BME280;3957;48.61947800;9.05303100;2023-04-06T01:23:05;96192.59;;;-2.33;97.85
7824;BME280;3957;48.61947800;9.05303100;2023-04-06T01:24:07;96199.13;;;-2.39;97.91
7824;BME280;3957;48.61947800;9.05303100;2023-04-06T01:25:20;96190.09;;;-2.46;98.37
7824;BME280;3957;48.61947800;9.05303100;2023-04-06T01:26:37;96188.41;;;-2.47;98.57
7824;BME280;3957;48.61947800;9.05303100;2023-04-06T01:27:41;96192.84;;;-2.48;98.83
7824;BME280;3957;48.61947800;9.05303100;2023-04-06T01:28:56;96186.91;;;-2.50;98.75
7824;BME280;3957;48.61947800;9.05303100;2023-04-06T01:30:02;96195.59;;;-2.49;98.95
7824;BME280;3957;48.61947800;9.05303100;2023-04-06T01:31:32;96187.00;;;-2.51;99.12
7824;BME280;3957;48.61947800;9.05303100;2023-04-06T01:32:32;96182.38;;;-2.48;99.75
7824;BME280;3957;48.61947800;9.05303100;2023-04-06T01:33:33;96189.63;;;-2.51;99.80
7824;BME280;3957;48.61947800;9.05303100;2023-04-06T01:34:37;96189.63;;;-2.51;100.00
7824;BME280;3957;48.61947800;9.05303100;2023-04-06T01:35:39;96195.84;;;-2.52;100.00
7824;BME280;3957;48.61947800;9.05303100;2023-04-06T01:36:52;96183.81;;;-2.55;100.00
7824;BME280;3957;48.61947800;9.05303100;2023-04-06T01:38:00;96188.78;;;-2.52;99.96
7824;BME280;3957;48.61947800;9.05303100;2023-04-06T01:39:05;96184.28;;;-2.50;99.68
7824;BME280;3957;48.61947800;9.05303100;2023-04-06T01:40:10;96183.19;;;-2.47;99.34
7824;BME280;3957;48.61947800;9.05303100;2023-04-06T01:41:19;96188.91;;;-2.42;98.87
7824;BME280;3957;48.61947800;9.05303100;2023-04-06T01:42:25;96181.28;;;-2.34;98.30
7824;BME280;3957;48.61947800;9.05303100;2023-04-06T01:43:26;96187.00;;;-2.40;98.15
7824;BME280;3957;48.61947800;9.05303100;2023-04-06T01:44:39;96178.53;;;-2.44;98.39
7824;BME280;3957;48.61947800;9.05303100;2023-04-06T01:45:47;96185.59;;;-2.44;98.15
7824;BME280;3957;48.61947800;9.05303100;2023-04-06T01:46:52;96179.50;;;-2.45;98.43
7824;BME280;3957;48.61947800;9.05303100;2023-04-06T01:47:53;96185.72;;;-2.46;98.37
7824;BME280;3957;48.61947800;9.05303100;2023-04-06T01:48:56;96184.16;;;-2.48;98.85
7824;BME280;3957;48.61947800;9.05303100;2023-04-06T01:50:07;96180.13;;;-2.52;98.83
7824;BME280;3957;48.61947800;9.05303100;2023-04-06T01:51:12;96183.81;;;-2.55;99.42
7824;BME280;3957;48.61947800;9.05303100;2023-04-06T01:52:21;96182.25;;;-2.58;100.00
7824;BME280;3957;48.61947800;9.05303100;2023-04-06T01:53:26;96183.31;;;-2.60;100.00
7824;BME280;3957;48.61947800;9.05303100;2023-04-06T01:54:32;96173.91;;;-2.63;100.00
7824;BME280;3957;48.61947800;9.05303100;2023-04-06T01:55:36;96177.25;;;-2.61;100.00
7824;BME280;3957;48.61947800;9.05303100;2023-04-06T01:56:51;96185.25;;;-2.62;100.00
7824;BME280;3957;48.61947800;9.05303100;2023-04-06T01:58:05;96182.75;;;-2.64;100.00
7824;BME280;3957;48.61947800;9.05303100;2023-04-06T01:59:10;96175.84;;;-2.65;100.00
7824;BME280;3957;48.61947800;9.05303100;2023-04-06T02:00:15;96175.09;;;-2.67;100.00
7824;BME280;3957;48.61947800;9.05303100;2023-04-06T02:01:22;96171.06;;;-2.71;100.00
7824;BME280;3957;48.61947800;9.05303100;2023-04-06T02:02:28;96177.47;;;-2.75;100.00
7824;BME280;3957;48.61947800;9.05303100;2023-04-06T02:03:35;96176.66;;;-2.76;100.00
7824;BME280;3957;48.61947800;9.05303100;2023-04-06T02:04:41;96176.91;;;-2.79;100.00
7824;BME280;3957;48.61947800;9.05303100;2023-04-06T02:05:44;96178.69;;;-2.79;100.00
7824;BME280;3957;48.61947800;9.05303100;2023-04-06T02:06:57;96175.00;;;-2.77;100.00
7824;BME280;3957;48.61947800;9.05303100;2023-04-06T02:08:00;96180.59;;;-2.81;100.00
7824;BME280;3957;48.61947800;9.05303100;2023-04-06T02:09:07;96178.09;;;-2.83;100.00
7824;BME280;3957;48.61947800;9.05303100;2023-04-06T02:10:17;96174.75;;;-2.85;100.00
7824;BME280;3957;48.61947800;9.05303100;2023-04-06T02:11:18;96175.59;;;-2.84;100.00
7824;BME280;3957;48.61947800;9.05303100;2023-04-06T02:12:24;96183.47;;;-2.84;100.00
7824;BME280;3957;48.61947800;9.05303100;2023-04-06T02:13:25;96181.78;;;-2.85;100.00
7824;BME280;3957;48.61947800;9.05303100;2023-04-06T02:14:27;96181.78;;;-2.85;100.00
7824;BME280;3957;48.61947800;9.05303100;2023-04-06T02:15:31;96179.03;;;-2.84;100.00
7824;BME280;3957;48.61947800;9.05303100;2023-04-06T02:16:32;96177.97;;;-2.81;100.00
7824;BME280;3957;48.61947800;9.05303100;2023-04-06T02:17:33;96176.31;;;-2.82;100.00
7824;BME280;3957;48.61947800;9.05303100;2023-04-06T02:18:33;96177.03;;;-2.80;100.00
7824;BME280;3957;48.61947800;9.05303100;2023-04-06T02:19:34;96171.88;;;-2.82;100.00
7824;BME280;3957;48.61947800;9.05303100;2023-04-06T02:20:34;96168.44;;;-2.82;100.00
7824;BME280;3957;48.61947800;9.05303100;2023-04-06T02:21:35;96168.44;;;-2.82;100.00
7824;BME280;3957;48.61947800;9.05303100;2023-04-06T02:22:35;96167.97;;;-2.87;100.00
7824;BME280;3957;48.61947800;9.05303100;2023-04-06T02:23:36;96168.09;;;-2.89;100.00
7824;BME280;3957;48.61947800;9.05303100;2023-04-06T02:24:36;96167.84;;;-2.86;100.00
7824;BME280;3957;48.61947800;9.05303100;2023-04-06T02:25:37;96165.94;;;-2.84;100.00
7824;BME280;3957;48.61947800;9.05303100;2023-04-06T02:26:37;96173.31;;;-2.78;100.00
7824;BME280;3957;48.61947800;9.05303100;2023-04-06T02:27:38;96164.88;;;-2.81;100.00
7824;BME280;3957;48.61947800;9.05303100;2023-04-06T02:28:39;96165.69;;;-2.81;100.00
7824;BME280;3957;48.61947800;9.05303100;2023-04-06T02:29:40;96170.81;;;-2.79;100.00
7824;BME280;3957;48.61947800;9.05303100;2023-04-06T02:30:40;96170.59;;;-2.76;100.00
7824;BME280;3957;48.61947800;9.05303100;2023-04-06T02:31:41;96164.88;;;-2.81;100.00
7824;BME280;3957;48.61947800;9.05303100;2023-04-06T02:32:42;96165.81;;;-2.82;100.00
7824;BME280;3957;48.61947800;9.05303100;2023-04-06T02:33:43;96170.38;;;-2.84;100.00
7824;BME280;3957;48.61947800;9.05303100;2023-04-06T02:34:44;96163.56;;;-2.87;100.00
7824;BME280;3957;48.61947800;9.05303100;2023-04-06T02:35:45;96167.25;;;-2.89;100.00
7824;BME280;3957;48.61947800;9.05303100;2023-04-06T02:36:46;96170.00;;;-2.91;100.00
7824;BME280;3957;48.61947800;9.05303100;2023-04-06T02:37:48;96167.50;;;-2.93;100.00
7824;BME280;3957;48.61947800;9.05303100;2023-04-06T02:38:48;96171.19;;;-2.95;100.00
7824;BME280;3957;48.61947800;9.05303100;2023-04-06T02:39:48;96170.34;;;-2.96;100.00
7824;BME280;3957;48.61947800;9.05303100;2023-04-06T02:40:50;96174.50;;;-2.93;100.00
7824;BME280;3957;48.61947800;9.05303100;2023-04-06T02:41:56;96172.75;;;-2.93;100.00
7824;BME280;3957;48.61947800;9.05303100;2023-04-06T02:42:59;96167.50;;;-2.93;100.00
7824;BME280;3957;48.61947800;9.05303100;2023-04-06T02:44:06;96167.50;;;-2.93;100.00
7824;BME280;3957;48.61947800;9.05303100;2023-04-06T02:45:13;96170.94;;;-2.92;100.00
7824;BME280;3957;48.61947800;9.05303100;2023-04-06T02:46:17;96171.88;;;-2.93;100.00
7824;BME280;3957;48.61947800;9.05303100;2023-04-06T02:47:17;96170.13;;;-2.93;100.00
7824;BME280;3957;48.61947800;9.05303100;2023-04-06T02:48:21;96164.41;;;-2.98;100.00
7824;BME280;3957;48.61947800;9.05303100;2023-04-06T02:49:22;96165.22;;;-2.97;100.00
7824;BME280;3957;48.61947800;9.05303100;2023-04-06T02:50:24;96169.75;;;-2.99;100.00
7824;BME280;3957;48.61947800;9.05303100;2023-04-06T02:51:31;96166.41;;;-3.01;100.00
7824;BME280;3957;48.61947800;9.05303100;2023-04-06T02:52:42;96162.84;;;-3.00;100.00
7824;BME280;3957;48.61947800;9.05303100;2023-04-06T02:53:44;96167.59;;;-3.05;100.00
7824;BME280;3957;48.61947800;9.05303100;2023-04-06T02:54:46;96167.22;;;-3.12;100.00
7824;BME280;3957;48.61947800;9.05303100;2023-04-06T02:55:47;96161.16;;;-3.13;100.00
7824;BME280;3957;48.61947800;9.05303100;2023-04-06T02:56:47;96161.53;;;-3.17;100.00
7824;BME280;3957;48.61947800;9.05303100;2023-04-06T02:57:47;96152.25;;;-3.21;100.00
7824;BME280;3957;48.61947800;9.05303100;2023-04-06T02:58:48;96161.75;;;-3.20;100.00
7824;BME280;3957;48.61947800;9.05303100;2023-04-06T02:59:48;96154.75;;;-3.20;100.00
7824;BME280;3957;48.61947800;9.05303100;2023-04-06T03:00:54;96160.09;;;-3.21;100.00
7824;BME280;3957;48.61947800;9.05303100;2023-04-06T03:01:55;96163.53;;;-3.21;100.00
7824;BME280;3957;48.61947800;9.05303100;2023-04-06T03:02:56;96159.59;;;-3.27;100.00
7824;BME280;3957;48.61947800;9.05303100;2023-04-06T03:03:57;96162.09;;;-3.25;100.00
7824;BME280;3957;48.61947800;9.05303100;2023-04-06T03:05:00;96165.66;;;-3.26;100.00
7824;BME280;3957;48.61947800;9.05303100;2023-04-06T03:06:07;96162.91;;;-3.25;100.00
7824;BME280;3957;48.61947800;9.05303100;2023-04-06T03:07:07;96159.47;;;-3.25;100.00
7824;BME280;3957;48.61947800;9.05303100;2023-04-06T03:08:11;96162.91;;;-3.25;100.00
7824;BME280;3957;48.61947800;9.05303100;2023-04-06T03:09:16;96160.44;;;-3.26;100.00
7824;BME280;3957;48.61947800;9.05303100;2023-04-06T03:10:18;96162.34;;;-3.28;100.00
7824;BME280;3957;48.61947800;9.05303100;2023-04-06T03:11:20;96158.78;;;-3.27;100.00
7824;BME280;3957;48.61947800;9.05303100;2023-04-06T03:12:23;96154.59;;;-3.30;100.00
7824;BME280;3957;48.61947800;9.05303100;2023-04-06T03:13:52;96164.59;;;-3.35;100.00
7824;BME280;3957;48.61947800;9.05303100;2023-04-06T03:14:54;96161.34;;;-3.38;100.00
7824;BME280;3957;48.61947800;9.05303100;2023-04-06T03:15:54;96158.84;;;-3.40;100.00
7824;BME280;3957;48.61947800;9.05303100;2023-04-06T03:16:56;96160.66;;;-3.40;100.00
7824;BME280;3957;48.61947800;9.05303100;2023-04-06T03:17:58;96167.69;;;-3.41;100.00
7824;BME280;3957;48.61947800;9.05303100;2023-04-06T03:19:15;96161.72;;;-3.43;100.00
7824;BME280;3957;48.61947800;9.05303100;2023-04-06T03:20:16;96163.50;;;-3.44;100.00
7824;BME280;3957;48.61947800;9.05303100;2023-04-06T03:21:16;96163.50;;;-3.44;100.00
7824;BME280;3957;48.61947800;9.05303100;2023-04-06T03:22:22;96166.94;;;-3.43;100.00
7824;BME280;3957;48.61947800;9.05303100;2023-04-06T03:23:22;96159.91;;;-3.43;100.00
7824;BME280;3957;48.61947800;9.05303100;2023-04-06T03:24:29;96171.47;;;-3.45;100.00
7824;BME280;3957;48.61947800;9.05303100;2023-04-06T03:25:30;96168.00;;;-3.46;100.00
7824;BME280;3957;48.61947800;9.05303100;2023-04-06T03:26:35;96170.38;;;-3.43;100.00
7824;BME280;3957;48.61947800;9.05303100;2023-04-06T03:27:39;96171.00;;;-3.39;100.00
7824;BME280;3957;48.61947800;9.05303100;2023-04-06T03:28:41;96166.69;;;-3.40;100.00
7824;BME280;3957;48.61947800;9.05303100;2023-04-06T03:29:42;96169.31;;;-3.40;100.00
7824;BME280;3957;48.61947800;9.05303100;2023-04-06T03:30:46;96163.75;;;-3.35;100.00
7824;BME280;3957;48.61947800;9.05303100;2023-04-06T03:31:48;96172.44;;;-3.35;100.00
7824;BME280;3957;48.61947800;9.05303100;2023-04-06T03:32:58;96169.00;;;-3.35;100.00
7824;BME280;3957;48.61947800;9.05303100;2023-04-06T03:34:02;96163.63;;;-3.34;100.00
7824;BME280;3957;48.61947800;9.05303100;2023-04-06T03:35:07;96165.41;;;-3.34;100.00
7824;BME280;3957;48.61947800;9.05303100;2023-04-06T03:36:08;96162.78;;;-3.34;100.00
7824;BME280;3957;48.61947800;9.05303100;2023-04-06T03:37:13;96161.03;;;-3.34;100.00
7824;BME280;3957;48.61947800;9.05303100;2023-04-06T03:38:20;96169.81;;;-3.35;100.00
7824;BME280;3957;48.61947800;9.05303100;2023-04-06T03:39:21;96167.81;;;-3.31;100.00
7824;BME280;3957;48.61947800;9.05303100;2023-04-06T03:40:21;96169.69;;;-3.33;100.00
7824;BME280;3957;48.61947800;9.05303100;2023-04-06T03:41:22;96165.19;;;-3.31;100.00
7824;BME280;3957;48.61947800;9.05303100;2023-04-06T03:42:33;96171.88;;;-3.27;100.00
7824;BME280;3957;48.61947800;9.05303100;2023-04-06T03:43:39;96171.75;;;-3.26;100.00
7824;BME280;3957;48.61947800;9.05303100;2023-04-06T03:44:40;96174.38;;;-3.26;100.00
7824;BME280;3957;48.61947800;9.05303100;2023-04-06T03:45:41;96174.25;;;-3.24;100.00
7824;BME280;3957;48.61947800;9.05303100;2023-04-06T03:46:41;96179.25;;;-3.21;100.00
7824;BME280;3957;48.61947800;9.05303100;2023-04-06T03:47:42;96176.84;;;-3.24;100.00
7824;BME280;3957;48.61947800;9.05303100;2023-04-06T03:48:42;96174.47;;;-3.27;100.00
7824;BME280;3957;48.61947800;9.05303100;2023-04-06T03:49:44;96170.06;;;-3.27;100.00
7824;BME280;3957;48.61947800;9.05303100;2023-04-06T03:50:46;96171.38;;;-3.32;100.00
7824;BME280;3957;48.61947800;9.05303100;2023-04-06T03:51:47;96175.16;;;-3.36;100.00
7824;BME280;3957;48.61947800;9.05303100;2023-04-06T03:52:47;96186.69;;;-3.39;100.00
7824;BME280;3957;48.61947800;9.05303100;2023-04-06T03:53:48;96174.34;;;-3.37;100.00
7824;BME280;3957;48.61947800;9.05303100;2023-04-06T03:54:49;96178.13;;;-3.41;100.00
7824;BME280;3957;48.61947800;9.05303100;2023-04-06T03:55:49;96179.09;;;-3.42;100.00
7824;BME280;3957;48.61947800;9.05303100;2023-04-06T03:56:50;96174.19;;;-3.47;100.00
7824;BME280;3957;48.61947800;9.05303100;2023-04-06T03:57:51;96180.38;;;-3.48;100.00
7824;BME280;3957;48.61947800;9.05303100;2023-04-06T03:58:52;96179.63;;;-3.50;100.00
7824;BME280;3957;48.61947800;9.05303100;2023-04-06T03:59:54;96179.63;;;-3.50;100.00
7824;BME280;3957;48.61947800;9.05303100;2023-04-06T04:00:55;96179.06;;;-3.53;100.00
7824;BME280;3957;48.61947800;9.05303100;2023-04-06T04:01:55;96179.13;;;-3.55;100.00
7824;BME280;3957;48.61947800;9.05303100;2023-04-06T04:02:56;96177.50;;;-3.56;100.00
7824;BME280;3957;48.61947800;9.05303100;2023-04-06T04:03:56;96182.84;;;-3.57;100.00
7824;BME280;3957;48.61947800;9.05303100;2023-04-06T04:04:56;96184.72;;;-3.60;100.00
7824;BME280;3957;48.61947800;9.05303100;2023-04-06T04:05:58;96184.03;;;-3.62;100.00
7824;BME280;3957;48.61947800;9.05303100;2023-04-06T04:07:00;96175.22;;;-3.61;100.00
7824;BME280;3957;48.61947800;9.05303100;2023-04-06T04:08:00;96181.41;;;-3.62;100.00
7824;BME280;3957;48.61947800;9.05303100;2023-04-06T04:09:01;96184.03;;;-3.62;100.00
7824;BME280;3957;48.61947800;9.05303100;2023-04-06T04:10:02;96184.13;;;-3.63;100.00
7824;BME280;3957;48.61947800;9.05303100;2023-04-06T04:11:05;96189.47;;;-3.65;100.00
7824;BME280;3957;48.61947800;9.05303100;2023-04-06T04:12:06;96191.38;;;-3.67;100.00
7824;BME280;3957;48.61947800;9.05303100;2023-04-06T04:13:06;96188.88;;;-3.68;100.00
7824;BME280;3957;48.61947800;9.05303100;2023-04-06T04:14:07;96195.03;;;-3.69;100.00
7824;BME280;3957;48.61947800;9.05303100;2023-04-06T04:15:07;96184.69;;;-3.71;100.00
7824;BME280;3957;48.61947800;9.05303100;2023-04-06T04:16:08;96190.16;;;-3.74;100.00
7824;BME280;3957;48.61947800;9.05303100;2023-04-06T04:17:09;96190.88;;;-3.72;100.00
7824;BME280;3957;48.61947800;9.05303100;2023-04-06T04:18:10;96190.03;;;-3.72;100.00
7824;BME280;3957;48.61947800;9.05303100;2023-04-06T04:19:10;96191.81;;;-3.73;100.00
7824;BME280;3957;48.61947800;9.05303100;2023-04-06T04:20:11;96191.91;;;-3.74;100.00
7824;BME280;3957;48.61947800;9.05303100;2023-04-06T04:21:11;96189.31;;;-3.74;100.00
7824;BME280;3957;48.61947800;9.05303100;2023-04-06T04:22:12;96187.44;;;-3.72;100.00
7824;BME280;3957;48.61947800;9.05303100;2023-04-06T04:23:14;96193.38;;;-3.70;100.00
7824;BME280;3957;48.61947800;9.05303100;2023-04-06T04:24:15;96194.34;;;-3.71;100.00
7824;BME280;3957;48.61947800;9.05303100;2023-04-06T04:25:15;96195.28;;;-3.72;100.00
7824;BME280;3957;48.61947800;9.05303100;2023-04-06T04:26:20;96195.28;;;-3.72;100.00
7824;BME280;3957;48.61947800;9.05303100;2023-04-06T04:27:21;96200.81;;;-3.77;100.00
7824;BME280;3957;48.61947800;9.05303100;2023-04-06T04:28:24;96190.34;;;-3.77;100.00
7824;BME280;3957;48.61947800;9.05303100;2023-04-06T04:29:27;96190.59;;;-3.80;100.00
7824;BME280;3957;48.61947800;9.05303100;2023-04-06T04:30:30;96192.16;;;-3.78;100.00
7824;BME280;3957;48.61947800;9.05303100;2023-04-06T04:31:30;96189.66;;;-3.79;100.00
7824;BME280;3957;48.61947800;9.05303100;2023-04-06T04:32:35;96191.66;;;-3.83;100.00
7824;BME280;3957;48.61947800;9.05303100;2023-04-06T04:33:38;96183.22;;;-3.86;100.00
7824;BME280;3957;48.61947800;9.05303100;2023-04-06T04:34:44;96192.69;;;-3.85;100.00
7824;BME280;3957;48.61947800;9.05303100;2023-04-06T04:35:53;96191.06;;;-3.86;100.00
7824;BME280;3957;48.61947800;9.05303100;2023-04-06T04:36:56;96189.38;;;-3.87;100.00
7824;BME280;3957;48.61947800;9.05303100;2023-04-06T04:38:12;96198.78;;;-3.85;100.00
7824;BME280;3957;48.61947800;9.05303100;2023-04-06T04:39:16;96192.63;;;-3.84;100.00
7824;BME280;3957;48.61947800;9.05303100;2023-04-06T04:40:21;96194.06;;;-3.80;100.00
7824;BME280;3957;48.61947800;9.05303100;2023-04-06T04:41:27;96195.59;;;-3.77;100.00
7824;BME280;3957;48.61947800;9.05303100;2023-04-06T04:42:27;96192.97;;;-3.77;100.00
7824;BME280;3957;48.61947800;9.05303100;2023-04-06T04:43:30;96195.59;;;-3.77;100.00
7824;BME280;3957;48.61947800;9.05303100;2023-04-06T04:44:33;96191.91;;;-3.74;100.00
7824;BME280;3957;48.61947800;9.05303100;2023-04-06T04:45:34;96190.28;;;-3.76;100.00
7824;BME280;3957;48.61947800;9.05303100;2023-04-06T04:46:44;96198.00;;;-3.74;100.00
7824;BME280;3957;48.61947800;9.05303100;2023-04-06T04:47:46;96197.03;;;-3.73;100.00
7824;BME280;3957;48.61947800;9.05303100;2023-04-06T04:48:49;96198.13;;;-3.76;100.00
7824;BME280;3957;48.61947800;9.05303100;2023-04-06T04:49:49;96193.72;;;-3.75;100.00
7824;BME280;3957;48.61947800;9.05303100;2023-04-06T04:50:55;96196.31;;;-3.75;100.00
7824;BME280;3957;48.61947800;9.05303100;2023-04-06T04:51:58;96194.53;;;-3.74;100.00
7824;BME280;3957;48.61947800;9.05303100;2023-04-06T04:53:08;96201.31;;;-3.72;100.00
7824;BME280;3957;48.61947800;9.05303100;2023-04-06T04:54:08;96197.53;;;-3.68;100.00
7824;BME280;3957;48.61947800;9.05303100;2023-04-06T04:55:09;96200.88;;;-3.66;100.00
7824;BME280;3957;48.61947800;9.05303100;2023-04-06T04:56:09;96196.47;;;-3.65;100.00
7824;BME280;3957;48.61947800;9.05303100;2023-04-06T04:57:10;96192.06;;;-3.65;100.00
7824;BME280;3957;48.61947800;9.05303100;2023-04-06T04:58:14;96206.13;;;-3.66;100.00
7824;BME280;3957;48.61947800;9.05303100;2023-04-06T04:59:24;96197.31;;;-3.65;100.00
7824;BME280;3957;48.61947800;9.05303100;2023-04-06T05:00:33;96196.38;;;-3.64;100.00